Météo Cheval Rigon

 

Relevés d'aujourd'hui



 

25/3/23
Time         Wind Dir   Wind Spd  Wind Gust   Humidity       Temp   Tot Rain Wind Chill  Dew Point   Barom SL Humidity R Temp Out R Tot Rain R   WindCh R   Dew Pt R SL Barom R Temp Out H Temp Out L  DailyRain   HourRain   24HrRain   RainRate  MonthRain
                          km/hr      km/hr          %         C         mm         C         C         mb       %/hr      C/hr      mm/hr      C/hr      C/hr      mm/hr         C         C         mm         mm         mm      mm/hr         mm
0:00              262         11         16         68        8.3     152.20        6.4        2.7    1016.74       -2.2      -0.41      0.006      -1.15      -0.84      0.187        8.3        8.3       0.00       0.00       5.80      0.000      78.00
0:15              223          5         18         68        8.2     152.20        7.7        2.6    1017.01       -1.6      -0.42      0.005       0.40      -0.73      0.397        8.3        8.2       0.00       0.00       5.80      0.000      78.00
0:30              246          5         18         68        8.1     152.20        7.7        2.6    1017.31       -1.2      -0.37      0.004       0.45      -0.60      0.584        8.3        8.1       0.00       0.00       5.80      0.000      78.00
0:45              211          6         18         68        8.2     152.20        7.3        2.6    1017.52       -1.0      -0.22      0.003       0.12      -0.41      0.638        8.3        8.1       0.00       0.00       5.80      0.000      78.00
1:00              216          8         16         69        7.9     152.20        6.6        2.6    1017.75        0.2      -0.38      0.002      -0.51      -0.32      0.713        8.3        7.9       0.00       0.00       5.80      0.000      78.00
1:15              203          5         18         69        7.9     152.20        7.5        2.6    1017.79        0.2      -0.30      0.002       0.53      -0.24      0.605        8.3        7.9       0.00       0.00       5.80      0.000      78.00
1:30              231         11         23         70        7.8     152.20        5.8        2.7    1017.75        1.2      -0.34      0.001      -1.04      -0.09      0.442        8.3        7.8       0.00       0.00       5.80      0.000      78.00
1:45              217         11         19         70        7.8     152.20        5.8        2.7    1017.92        1.1      -0.25      0.001      -0.88      -0.03      0.503        8.3        7.8       0.00       0.00       5.80      0.000      78.00
2:00              254          5         18         69        8.1     152.20        7.7        2.8    1017.86        0.0       0.05      0.001       1.00       0.05      0.340        8.3        7.8       0.00       0.00       5.80      0.000      78.00
2:15              209          6         19         68        8.3     152.20        7.4        2.7    1017.62       -0.8       0.18      0.001       0.71       0.01      0.057        8.3        7.8       0.00       0.00       5.80      0.000      78.00
2:30              272          5         18         69        8.3     152.20        7.9        2.9    1017.69        0.3       0.15      0.000       1.09       0.20      0.074        8.3        7.8       0.00       0.00       5.80      0.000      78.00
2:45              273          5         18         69        8.2     152.20        7.7        2.8    1017.58        0.1       0.03      0.000       0.93       0.06     -0.025        8.3        7.8       0.00       0.00       5.80      0.000      78.00
3:00              249          8         18         71        8.2     152.20        6.9        3.2    1017.55        1.9       0.03      0.000       0.03       0.40     -0.044        8.3        7.8       0.00       0.00       5.80      0.000      78.00
3:15              184         10         13         72        8.1     152.20        6.4        3.3    1017.55        2.4      -0.07      0.000      -0.45       0.40     -0.030        8.3        7.8       0.00       0.00       5.80      0.000      78.00
3:30              243          6         19         73        7.9     152.20        7.0        3.4    1017.38        2.8      -0.16      0.000       0.19       0.40     -0.177        8.3        7.8       0.00       0.00       5.80      0.000      78.00
3:45              244          5         13         73        7.9     152.20        7.5        3.4    1017.28        2.2      -0.12      0.000       0.61       0.31     -0.218        8.3        7.8       0.00       0.00       5.80      0.000      78.00
4:00              223          8         13         73        7.9     152.20        6.6        3.4    1017.25        1.7      -0.10      0.000      -0.31       0.25     -0.184        8.3        7.8       0.00       0.00       5.80      0.000      78.00
4:15              239         11         18         74        7.9     152.20        5.9        3.5    1017.25        2.3      -0.13      0.000      -1.02       0.33     -0.142        8.3        7.8       0.00       0.00       5.80      0.000      78.00
4:30              250         10         21         74        7.8     152.20        6.1        3.4    1016.98        1.8      -0.21      0.000      -0.75       0.15     -0.357        8.3        7.8       0.00       0.00       5.80      0.000      78.00
4:45              242          5         19         75        7.6     152.20        7.1        3.5    1016.87        2.2      -0.30      0.000       0.41       0.14     -0.388        8.3        7.6       0.00       0.00       5.80      0.000      78.00
5:00              271          8         13         75        7.7     152.20        6.3        3.5    1017.14        1.7      -0.19      0.000      -0.44       0.15     -0.060        8.3        7.6       0.00       0.00       5.80      0.000      78.00
5:15              235         11         18         75        7.5     152.20        5.4        3.4    1017.18        1.3      -0.29      0.000      -1.18      -0.02     -0.007        8.3        7.4       0.00       0.00       5.80      0.000      78.00
5:30              217          3         18         75        7.6     152.20        7.6        3.5    1017.31        1.0      -0.13      0.000       1.13       0.08      0.128        8.3        7.4       0.00       0.00       5.80      0.000      78.00
5:45              266         11         21         75        7.6     152.20        5.6        3.5    1017.25        0.8      -0.09      0.000      -0.81       0.07      0.039        8.3        7.4       0.00       0.00       5.80      0.000      78.00
6:00              246         16         16         74        7.7     152.20        4.9        3.3    1017.18       -0.3      -0.02      0.000      -1.41      -0.07     -0.004        8.3        7.4       0.00       0.00       5.80      0.000      78.00
6:15              230          5         19         75        7.6     152.20        7.1        3.5    1017.45        0.7      -0.06      0.000       0.85       0.08      0.225        8.3        7.4       0.00       0.00       5.80      0.000      78.00
6:30              246         10         24         74        7.7     152.20        5.9        3.3    1017.45       -0.3       0.01      0.000      -0.30      -0.05      0.178        8.3        7.4       0.00       0.00       5.80      0.000      78.00
6:45              229          8         18         73        7.7     152.20        6.3        3.1    1017.48       -1.1      -0.00      0.000       0.03      -0.21      0.176        8.3        7.4       0.00       0.00       5.80      0.000      78.00
7:00              232          5         18         74        7.6     152.20        7.1        3.3    1017.52        0.0      -0.06      0.000       0.87      -0.05      0.174        8.3        7.4       0.00       0.00       5.80      0.000      78.00
7:15              254          3         14         74        7.6     152.20        7.6        3.3    1017.65        0.1      -0.05      0.000       1.27      -0.04      0.257        8.3        7.4       0.00       0.00       5.80      0.000      78.00
7:30              233          2         14         74        7.5     152.20        7.5        3.2    1017.82       -0.1      -0.14      0.000       1.14      -0.15      0.337        8.3        7.4       0.00       0.00       5.80      0.000      78.00
7:45              223          6         14         74        7.7     152.20        6.7        3.3    1017.96       -0.1       0.04      0.000       0.31       0.02      0.379        8.3        7.4       0.00       0.00       5.80      0.000      78.00
8:00              229          3         18         74        7.7     152.20        7.7        3.3    1018.19       -0.0       0.03      0.000       1.27       0.03      0.498        8.3        7.4       0.00       0.00       5.80      0.000      78.00
8:15              244          3         16         74        7.7     152.20        7.7        3.4    1018.23        0.0       0.07      0.000       1.26       0.07      0.413        8.3        7.4       0.00       0.00       5.80      0.000      78.00
8:30              225          8         13         74        7.7     152.20        6.3        3.4    1018.26        0.0       0.06      0.000      -0.19       0.06      0.349        8.3        7.4       0.00       0.00       5.80      0.000      78.00
8:45              279          6         18         78        7.5     152.20        6.5        3.9    1018.67        3.6      -0.17      0.000      -0.05       0.51      0.630        8.3        7.4       0.00       0.00       5.20      0.000      78.00
9:00              193         10         11         81        7.4     152.20        5.7        4.4    1018.70        5.5      -0.19      0.000      -0.95       0.83      0.522        8.3        7.4       0.00       0.00       4.40      0.000      78.00
9:15              253          3         11         85        7.1     152.40        7.1        4.7    1018.67        7.9      -0.48      0.173       0.42       0.94      0.384        8.3        7.1       0.20       0.20       4.40      0.000      78.20
9:30              248          8         11         82        7.4     152.40        5.9        4.5    1018.67        3.4      -0.06      0.135      -0.63       0.57      0.294        8.3        7.1       0.20       0.20       4.20      0.000      78.20
9:45              282          6         16         82        7.6     152.80        6.6        4.7    1018.91        2.8       0.14      0.498       0.09       0.65      0.447        8.3        7.1       0.60       0.60       4.20      7.800      78.60
10:00             281          6         18         88        6.9     153.60        5.8        5.1    1018.94        7.4      -0.47      1.090      -0.53       0.82      0.349        8.3        6.9       1.40       1.40       4.60      2.200      79.40
10:15             261          5         13         90        7.2     153.60        6.7        5.7    1019.01        7.5      -0.11      0.849       0.26       1.18      0.324        8.3        6.9       1.40       1.40       4.20      0.000      79.40
10:30             273          6         11         90        7.8     153.60        6.8        6.2    1019.14        5.7       0.40      0.662       0.28       1.38      0.372        8.3        6.9       1.40       1.20       4.00      0.000      79.40
10:45             284          6         16         85        9.6     153.60        8.9        7.2    1019.07       -0.3       1.89      0.515       2.00       1.83      0.230        9.6        6.9       1.40       1.20       3.80      0.000      79.40
11:00             313          0         16         83        9.7     153.60        9.7        6.9    1019.18       -1.6       1.52      0.401       2.24       1.25      0.266       10.1        6.9       1.40       0.80       3.80      0.000      79.40
11:15             276         13         21         77        9.7     153.60        7.8        5.8    1019.07       -6.3       1.24      0.313       0.11       0.09      0.129       10.1        6.9       1.40       0.00       3.80      0.000      79.40
11:30             243          6         13         74       12.0     153.60       11.7        7.5    1019.07       -7.6       2.99      0.244       3.31       1.52      0.095       12.0        6.9       1.40       0.00       3.80      0.000      79.40
11:45             299          5         16         71       11.1     153.60       11.0        6.0    1018.94       -8.1       1.55      0.190       2.12      -0.00     -0.037       12.0        6.9       1.40       0.00       3.60      0.000      79.40
12:00             297          6         11         70       12.7     153.60       12.5        7.4    1019.11       -7.4       2.77      0.148       3.08       1.28      0.123       12.7        6.9       1.40       0.00       3.40      0.000      79.40
12:15             309          3         14         70       10.6     153.60       10.6        5.3    1018.97       -5.0       0.20      0.115       0.63      -0.73     -0.011       13.0        6.9       1.40       0.00       3.40      0.000      79.40
12:30             286          5         13         71        9.9     153.60        9.8        4.9    1018.97       -2.9      -0.35      0.090      -0.13      -0.84     -0.013       13.0        6.9       1.40       0.00       3.40      0.000      79.40
12:45             265          3         14         70       11.5     153.60       11.5        6.2    1019.01       -2.8       1.09      0.070       1.51       0.54      0.016       13.0        6.9       1.40       0.00       3.40      0.000      79.40
13:00             283          5         13         67       11.1     153.60       11.1        5.2    1018.77       -4.7       0.54      0.054       0.91      -0.41     -0.203       13.0        6.9       1.40       0.00       3.40      0.000      79.40
13:15             238          6         14         65       11.0     153.60       10.5        4.7    1018.63       -5.5       0.26      0.042       0.20      -0.86     -0.276       13.0        6.9       1.40       0.00       3.20      0.000      79.40
13:30             284         11         18         61       12.4     153.60       11.3        5.1    1018.60       -8.1       1.42      0.033       0.80      -0.38     -0.236       13.0        6.9       1.40       0.00       3.20      0.000      79.40
13:45             256         10         18         57       13.1     153.60       12.3        4.7    1018.33      -10.6       1.78      0.026       1.54      -0.71     -0.421       13.3        6.9       1.40       0.00       2.80      0.000      79.40
14:00             299         11         21         63       12.6     153.60       11.6        5.8    1018.36       -3.1       1.02      0.020       0.48       0.33     -0.282       13.3        6.9       1.40       0.00       2.80      0.000      79.40
14:15             244          6         21         63       12.1     153.60       11.7        5.2    1018.30       -2.3       0.33      0.016       0.55      -0.15     -0.275       13.3        6.9       1.40       0.00       2.80      0.000      79.40
14:30             267          5         19         64       11.7     153.60       11.7        5.1    1017.96       -0.6      -0.04      0.012       0.50      -0.13     -0.504       13.3        6.9       1.40       0.00       2.80      0.000      79.40
14:45             279          6         16         65       11.4     153.60       11.0        5.0    1018.03        0.3      -0.30      0.009      -0.21      -0.18     -0.335       13.3        6.9       1.40       0.00       2.40      0.000      79.40
15:00             298          5         11         67       11.4     153.60       11.4        5.5    1017.96        2.1      -0.20      0.007       0.27       0.29     -0.318       13.3        6.9       1.40       0.00       2.00      0.000      79.40
15:15             269          3         19         66       11.6     153.60       11.6        5.4    1017.72        0.9      -0.04      0.006       0.45       0.17     -0.464       13.3        6.9       1.40       0.00       1.80      0.000      79.40
15:30             267          3         14         67       11.3     153.60       11.3        5.4    1017.52        1.6      -0.21      0.004       0.27       0.17     -0.557       13.3        6.9       1.40       0.00       1.60      0.000      79.40
15:45             271         11         16         67       11.2     153.60        9.8        5.3    1017.65        1.4      -0.32      0.003      -1.18       0.00     -0.307       13.3        6.9       1.40       0.00       1.60      0.000      79.40
16:00             295          5         13         67       11.1     153.60       11.1        5.2    1017.65        1.1      -0.30      0.003       0.09      -0.04     -0.235       13.3        6.9       1.40       0.00       1.60      0.000      79.40
16:15             246          5         11         68       11.1     153.60       11.1        5.4    1017.45        1.7      -0.25      0.002       0.05       0.13     -0.371       13.3        6.9       1.40       0.00       1.60      0.000      79.40
16:30             291          3          8         68       11.1     153.60       11.1        5.4    1017.52        1.3      -0.25      0.002       0.03       0.05     -0.220       13.3        6.9       1.40       0.00       1.60      0.000      79.40
16:45             243          3         13         65       10.9     153.60       10.9        4.6    1017.38       -1.3      -0.30      0.001      -0.01      -0.57     -0.283       13.3        6.9       1.40       0.00       1.60      0.000      79.40
17:00             267          8         11         63       11.0     153.60       10.2        4.2    1017.14       -2.6      -0.19      0.001      -0.70      -0.75     -0.436       13.3        6.9       1.40       0.00       1.60      0.000      79.40
17:15             288          5         11         62       10.9     153.60       10.8        3.9    1016.94       -2.8      -0.24      0.001      -0.03      -0.85     -0.534       13.3        6.9       1.40       0.00       1.60      0.000      79.40
17:30             269          6         11         63       10.8     153.60       10.3        4.1    1016.98       -1.5      -0.23      0.001      -0.42      -0.55     -0.382       13.3        6.9       1.40       0.00       1.60      0.000      79.40
17:45             231          2         10         64       10.7     153.60       10.7        4.1    1016.98       -0.2      -0.32      0.000      -0.02      -0.35     -0.303       13.3        6.9       1.40       0.00       1.60      0.000      79.40
18:00             223          3         11         63       10.4     153.60       10.4        3.7    1016.91       -1.1      -0.49      0.000      -0.14      -0.69     -0.301       13.3        6.9       1.40       0.00       1.60      0.000      79.40

 


 

 

 

Retour accueil